Time;durP1;ratioP1;P1;durP2;ratioP2;P2;SDS_P1;SDS_P2;PMS_P1;PMS_P2;Temp;Humidity;BMP_temperature;BMP_pressure;BME280_temperature;BME280_humidity;BME280_pressure;Samples;Min_cycle;Max_cycle;Signal;HPM_P1;HPM_P2
2022/09/16 00:01:13;;;;;;;;;;;;;;;13.51;100.00;97926.38;104898;1270;77453;-70
2022/09/16 00:03:52;;;;;;;;;;;;;;;13.51;100.00;97927.98;104907;1270;69814;-70
2022/09/16 00:06:20;;;;;;;;;;;;;;;13.50;100.00;97930.55;104909;1270;74769;-70
2022/09/16 00:08:49;;;;;;;;;;;;;;;13.49;100.00;97937.27;104880;1270;62087;-70
2022/09/16 00:11:15;;;;;;;;;;;;;;;13.47;100.00;97939.79;104871;1270;62013;-69
2022/09/16 00:13:42;;;;;;;;;;;;;;;13.45;100.00;97936.64;104638;1273;74505;-70
2022/09/16 00:16:09;;;;;;;;;;;;;;;13.43;100.00;97939.66;104907;1270;62173;-69
2022/09/16 00:18:35;;;;;;;;;;;;;;;13.41;100.00;97943.04;104940;1270;73475;-69
2022/09/16 00:21:06;;;;;;;;;;;;;;;13.39;100.00;97946.13;104891;1270;62188;-69
2022/09/16 00:23:32;;;;;;;;;;;;;;;13.36;100.00;97945.09;104889;1270;62108;-71
2022/09/16 00:25:58;;;;;;;;;;;;;;;13.34;100.00;97944.96;104906;1270;62182;-68
2022/09/16 00:28:24;;;;;;;;;;;;;;;13.32;100.00;97949.42;104686;1270;62188;-68
2022/09/16 00:30:51;;;;;;;;;;;;;;;13.31;100.00;97954.13;105005;1270;62132;-69
2022/09/16 00:33:17;;;;;;;;;;;;;;;13.30;100.00;97950.92;105011;1270;62184;-69
2022/09/16 00:35:44;;;;;;;;;;;;;;;13.27;100.00;97952.78;104993;1271;62120;-69
2022/09/16 00:38:10;;;;;;;;;;;;;;;13.24;100.00;97950.85;104938;1270;62182;-69
2022/09/16 00:40:43;;;;;;;;;;;;;;;13.23;100.00;97945.95;104900;1270;62096;-69
2022/09/16 00:43:11;;;;;;;;;;;;;;;13.21;100.00;97943.46;104950;1271;73690;-69
2022/09/16 00:45:37;;;;;;;;;;;;;;;13.20;100.00;97947.34;104893;1270;62078;-69
2022/09/16 00:48:06;;;;;;;;;;;;;;;13.18;100.00;97950.72;104890;1270;62179;-69
2022/09/16 00:50:50;;;;;;;;;;;;;;;13.17;100.00;97948.30;104914;1270;77131;-69
2022/09/16 00:53:19;;;;;;;;;;;;;;;13.16;100.00;97953.23;105120;1270;71034;-70
2022/09/16 00:55:45;;;;;;;;;;;;;;;13.14;100.00;97956.98;105091;1270;74174;-72
2022/09/16 00:58:17;;;;;;;;;;;;;;;13.13;100.00;97953.38;105209;1270;62079;-69
2022/09/16 01:00:43;;;;;;;;;;;;;;;13.10;100.00;97956.45;105002;1270;62620;-70
2022/09/16 01:03:09;;;;;;;;;;;;;;;13.09;100.00;97951.95;104909;1270;62176;-69
2022/09/16 01:05:36;;;;;;;;;;;;;;;13.07;100.00;97957.84;104998;1270;62850;-70
2022/09/16 01:08:03;;;;;;;;;;;;;;;13.04;100.00;97953.29;104909;1270;62192;-70
2022/09/16 01:10:30;;;;;;;;;;;;;;;13.02;100.00;97959.73;104617;1270;62138;-69
2022/09/16 01:13:02;;;;;;;;;;;;;;;13.00;100.00;97961.85;104985;1270;62130;-70
2022/09/16 01:15:34;;;;;;;;;;;;;;;12.99;100.00;97959.35;104651;1272;74527;-70
2022/09/16 01:18:16;;;;;;;;;;;;;;;12.97;100.00;97963.98;104917;1270;71335;-70
2022/09/16 01:20:50;;;;;;;;;;;;;;;12.94;100.00;97970.77;104886;1270;73380;-70
2022/09/16 01:23:36;;;;;;;;;;;;;;;12.92;100.00;97966.14;104640;1270;62257;-69
2022/09/16 01:26:18;;;;;;;;;;;;;;;12.90;100.00;97964.89;104896;1270;62222;-70
2022/09/16 01:28:59;;;;;;;;;;;;;;;12.88;100.00;97965.63;104917;1270;76007;-69
2022/09/16 01:31:32;;;;;;;;;;;;;;;12.87;100.00;97971.61;104881;1271;70448;-69
2022/09/16 01:34:09;;;;;;;;;;;;;;;12.86;100.00;97965.98;105000;1270;73305;-69
2022/09/16 01:36:44;;;;;;;;;;;;;;;12.86;100.00;97963.34;104953;1270;62207;-69
2022/09/16 01:39:14;;;;;;;;;;;;;;;12.85;100.00;97964.50;104893;1270;63641;-69
2022/09/16 01:41:43;;;;;;;;;;;;;;;12.84;100.00;97951.73;104899;1271;76372;-70
2022/09/16 01:44:22;;;;;;;;;;;;;;;12.83;100.00;97952.92;104894;1270;69329;-69
2022/09/16 01:46:51;;;;;;;;;;;;;;;12.81;100.00;97957.07;105310;1270;74719;-70
2022/09/16 01:49:21;;;;;;;;;;;;;;;12.80;100.00;97955.02;105036;1271;61961;-70
2022/09/16 01:51:51;;;;;;;;;;;;;;;12.80;100.00;97962.30;105211;1270;61988;-70
2022/09/16 01:54:32;;;;;;;;;;;;;;;12.79;100.00;97958.98;104912;1270;77370;-70
2022/09/16 01:57:02;;;;;;;;;;;;;;;12.77;100.00;97962.92;104895;1271;70592;-70
2022/09/16 01:59:42;;;;;;;;;;;;;;;12.77;100.00;97962.78;104623;1273;72445;-70
2022/09/16 02:02:19;;;;;;;;;;;;;;;12.76;100.00;97963.06;104971;1271;62098;-69
2022/09/16 02:04:49;;;;;;;;;;;;;;;12.75;100.00;97960.09;104920;1270;62046;-70
2022/09/16 02:07:17;;;;;;;;;;;;;;;12.76;100.00;97961.40;104647;1271;76329;-70
2022/09/16 02:09:47;;;;;;;;;;;;;;;12.77;100.00;97958.69;104939;1270;69339;-70
2022/09/16 02:12:17;;;;;;;;;;;;;;;12.77;100.00;97957.06;104691;1273;73442;-69
2022/09/16 02:14:44;;;;;;;;;;;;;;;12.78;100.00;97958.55;104908;1271;62108;-69
2022/09/16 02:17:16;;;;;;;;;;;;;;;12.79;100.00;97960.41;104635;1271;62191;-70
2022/09/16 02:19:43;;;;;;;;;;;;;;;12.80;100.00;97964.65;104657;1273;75944;-69
2022/09/16 02:22:16;;;;;;;;;;;;;;;12.81;100.00;97968.45;104915;1270;69250;-69
2022/09/16 02:24:45;;;;;;;;;;;;;;;12.82;100.00;97960.36;104947;1270;73337;-69
2022/09/16 02:27:16;;;;;;;;;;;;;;;12.84;100.00;97961.63;104895;1271;62165;-68
2022/09/16 02:29:45;;;;;;;;;;;;;;;12.84;100.00;97963.70;104938;1270;62099;-68
2022/09/16 02:32:14;;;;;;;;;;;;;;;12.86;100.00;97968.58;104879;1270;77316;-68
2022/09/16 02:34:45;;;;;;;;;;;;;;;12.86;100.00;97961.80;104653;1270;67621;-69
2022/09/16 02:37:17;;;;;;;;;;;;;;;12.86;100.00;97959.92;104916;1270;72350;-69
2022/09/16 02:39:47;;;;;;;;;;;;;;;12.87;100.00;97961.64;105011;1270;62178;-69
2022/09/16 02:42:13;;;;;;;;;;;;;;;12.87;100.00;97964.48;104905;1270;62275;-69
2022/09/16 02:44:39;;;;;;;;;;;;;;;12.88;100.00;97964.08;104908;1270;62079;-69
2022/09/16 02:47:20;;;;;;;;;;;;;;;12.88;100.00;97962.99;104872;1271;62197;-68
2022/09/16 02:49:56;;;;;;;;;;;;;;;12.88;100.00;97968.00;104873;1270;74591;-69
2022/09/16 02:52:31;;;;;;;;;;;;;;;12.88;100.00;97967.48;104904;1270;62126;-69
2022/09/16 02:55:04;;;;;;;;;;;;;;;12.87;100.00;97969.30;104897;1271;62046;-68
2022/09/16 02:57:30;;;;;;;;;;;;;;;12.87;100.00;97967.50;104725;1274;74364;-69
2022/09/16 02:59:56;;;;;;;;;;;;;;;12.87;100.00;97964.71;104990;1270;62064;-69
2022/09/16 03:02:22;;;;;;;;;;;;;;;12.87;100.00;97965.61;104938;1271;62155;-70
2022/09/16 03:04:48;;;;;;;;;;;;;;;12.85;100.00;97968.06;104971;1270;62188;-70
2022/09/16 03:07:15;;;;;;;;;;;;;;;12.84;100.00;97960.89;104915;1270;62665;-68
2022/09/16 03:09:44;;;;;;;;;;;;;;;12.82;100.00;97960.67;105018;1270;62187;-69
2022/09/16 03:12:29;;;;;;;;;;;;;;;12.81;100.00;97954.59;104885;1271;70500;-70
2022/09/16 03:15:13;;;;;;;;;;;;;;;12.77;100.00;97953.14;105084;1271;74483;-69
2022/09/16 03:17:59;;;;;;;;;;;;;;;12.73;100.00;97961.72;104878;1270;62123;-69
2022/09/16 03:20:24;;;;;;;;;;;;;;;12.69;100.00;97959.05;104899;1271;62107;-69
2022/09/16 03:22:57;;;;;;;;;;;;;;;12.65;100.00;97958.90;104869;1271;62151;-69
2022/09/16 03:25:23;;;;;;;;;;;;;;;12.59;100.00;97958.55;104866;1271;69438;-69
2022/09/16 03:27:51;;;;;;;;;;;;;;;12.54;100.00;97961.16;104862;1270;62101;-70
2022/09/16 03:30:18;;;;;;;;;;;;;;;12.47;100.00;97960.53;105007;1271;62037;-69
2022/09/16 03:33:04;;;;;;;;;;;;;;;12.42;100.00;97960.83;104971;1271;62068;-68
2022/09/16 03:35:32;;;;;;;;;;;;;;;12.35;100.00;97964.85;104892;1271;76181;-70
2022/09/16 03:38:00;;;;;;;;;;;;;;;12.27;100.00;97969.21;104892;1271;70515;-71
2022/09/16 03:40:28;;;;;;;;;;;;;;;12.22;100.00;97970.27;105130;1271;73572;-69
2022/09/16 03:42:56;;;;;;;;;;;;;;;12.17;100.00;97972.20;105180;1271;62065;-70
2022/09/16 03:45:23;;;;;;;;;;;;;;;12.12;100.00;97979.16;105213;1270;62050;-70
2022/09/16 03:47:49;;;;;;;;;;;;;;;12.08;100.00;97983.63;105234;1271;62545;-70
2022/09/16 03:50:16;;;;;;;;;;;;;;;12.04;100.00;97980.46;105285;1271;69289;-70
2022/09/16 03:52:42;;;;;;;;;;;;;;;12.00;100.00;97978.96;105206;1271;62144;-70
2022/09/16 03:55:09;;;;;;;;;;;;;;;11.96;100.00;97978.64;105059;1272;62267;-70
2022/09/16 03:57:36;;;;;;;;;;;;;;;11.93;100.00;97976.30;105345;1270;62136;-70
2022/09/16 04:00:03;;;;;;;;;;;;;;;11.91;100.00;97973.10;105233;1271;62412;-70
2022/09/16 04:02:29;;;;;;;;;;;;;;;11.88;100.00;97970.81;105048;1271;70552;-69
2022/09/16 04:04:55;;;;;;;;;;;;;;;11.85;100.00;97968.95;104714;1271;63848;-69
2022/09/16 04:07:21;;;;;;;;;;;;;;;11.81;100.00;97966.82;104877;1270;62228;-69
2022/09/16 04:09:47;;;;;;;;;;;;;;;11.78;100.00;97972.06;104895;1271;62095;-68
2022/09/16 04:12:13;;;;;;;;;;;;;;;11.76;100.00;97976.61;104888;1271;62055;-70
2022/09/16 04:14:39;;;;;;;;;;;;;;;11.75;100.00;97975.02;104878;1271;62142;-69
2022/09/16 04:17:05;;;;;;;;;;;;;;;11.73;100.00;97976.78;104998;1271;62624;-68
2022/09/16 04:19:31;;;;;;;;;;;;;;;11.70;100.00;97980.53;104866;1271;62053;-68
2022/09/16 04:21:58;;;;;;;;;;;;;;;11.67;100.00;97980.95;104677;1272;62167;-69
2022/09/16 04:24:24;;;;;;;;;;;;;;;11.64;100.00;97981.43;104927;1271;62142;-69
2022/09/16 04:26:50;;;;;;;;;;;;;;;11.62;100.00;97978.59;104864;1271;73496;-70
2022/09/16 04:29:16;;;;;;;;;;;;;;;11.59;100.00;97978.45;104881;1271;62516;-70
2022/09/16 04:31:42;;;;;;;;;;;;;;;11.57;100.00;97988.23;104860;1271;62196;-70
2022/09/16 04:34:12;;;;;;;;;;;;;;;11.55;100.00;97987.02;104872;1272;62611;-71
2022/09/16 04:36:38;;;;;;;;;;;;;;;11.52;100.00;97993.65;104875;1271;68534;-70
2022/09/16 04:39:05;;;;;;;;;;;;;;;11.50;100.00;97989.80;105154;1271;74608;-70
2022/09/16 04:41:31;;;;;;;;;;;;;;;11.48;100.00;97981.92;105097;1271;62207;-70
2022/09/16 04:43:57;;;;;;;;;;;;;;;11.55;100.00;97981.36;104852;1271;62098;-70
2022/09/16 04:46:26;;;;;;;;;;;;;;;11.65;100.00;97984.35;104646;1274;76170;-70
2022/09/16 04:48:53;;;;;;;;;;;;;;;11.67;100.00;97982.39;104984;1271;69695;-69
2022/09/16 04:51:21;;;;;;;;;;;;;;;11.70;100.00;97984.86;104825;1271;73518;-69
2022/09/16 04:53:47;;;;;;;;;;;;;;;11.71;100.00;97985.45;104981;1270;62153;-69
2022/09/16 04:56:16;;;;;;;;;;;;;;;12.03;100.00;97987.79;104972;1270;62166;-70
2022/09/16 04:58:43;;;;;;;;;;;;;;;12.50;100.00;97982.17;105214;1271;76529;-71
2022/09/16 05:01:11;;;;;;;;;;;;;;;12.87;100.00;97982.69;105092;1271;70494;-69
2022/09/16 05:03:42;;;;;;;;;;;;;;;13.28;100.00;97979.77;105235;1270;74197;-69
2022/09/16 05:06:09;;;;;;;;;;;;;;;13.59;100.00;97973.85;105207;1271;62204;-69
2022/09/16 05:08:35;;;;;;;;;;;;;;;13.99;100.00;97977.95;105162;1271;62210;-70
2022/09/16 05:11:06;;;;;;;;;;;;;;;14.30;100.00;97982.48;104826;1271;62158;-70
2022/09/16 05:13:32;;;;;;;;;;;;;;;14.68;100.00;97985.70;104610;1274;67855;-69
2022/09/16 05:16:07;;;;;;;;;;;;;;;15.02;100.00;97988.16;104850;1271;62141;-70
2022/09/16 05:18:33;;;;;;;;;;;;;;;15.26;100.00;97988.48;104959;1270;62178;-68
2022/09/16 05:21:00;;;;;;;;;;;;;;;15.43;100.00;97988.13;104991;1271;62098;-68
2022/09/16 05:23:27;;;;;;;;;;;;;;;15.51;100.00;97989.40;104998;1271;76290;-69
2022/09/16 05:25:53;;;;;;;;;;;;;;;15.38;100.00;97985.38;104881;1271;62156;-69
2022/09/16 05:28:20;;;;;;;;;;;;;;;15.12;100.00;97981.77;104849;1270;62142;-69
2022/09/16 05:30:46;;;;;;;;;;;;;;;14.90;100.00;97979.21;104646;1272;62197;-68
2022/09/16 05:33:13;;;;;;;;;;;;;;;14.69;100.00;97975.04;104902;1271;62166;-71
2022/09/16 05:35:40;;;;;;;;;;;;;;;14.53;100.00;97978.64;104895;1270;62486;-70
2022/09/16 05:38:06;;;;;;;;;;;;;;;14.36;100.00;97987.77;104875;1271;69424;-69
2022/09/16 05:40:33;;;;;;;;;;;;;;;14.27;100.00;97992.36;104879;1271;62146;-70
2022/09/16 05:42:58;;;;;;;;;;;;;;;14.20;100.00;97990.20;104881;1271;62112;-69
2022/09/16 05:45:24;;;;;;;;;;;;;;;14.17;100.00;97996.90;104865;1271;62201;-70
2022/09/16 05:47:50;;;;;;;;;;;;;;;14.25;100.00;97996.02;104640;1271;62210;-69
2022/09/16 05:50:16;;;;;;;;;;;;;;;14.16;100.00;97995.42;104875;1271;62100;-69
2022/09/16 05:52:42;;;;;;;;;;;;;;;14.15;100.00;97992.92;104831;1270;62188;-70
2022/09/16 05:55:08;;;;;;;;;;;;;;;14.17;100.00;97991.40;105176;1270;62183;-69
2022/09/16 05:57:34;;;;;;;;;;;;;;;14.20;100.00;97990.45;104857;1271;76406;-69
2022/09/16 06:00:01;;;;;;;;;;;;;;;14.23;100.00;97989.39;104875;1270;62054;-69
2022/09/16 06:02:27;;;;;;;;;;;;;;;14.26;100.00;97986.44;104653;1271;62182;-68
2022/09/16 06:04:53;;;;;;;;;;;;;;;14.29;100.00;97990.23;104888;1270;62249;-71
2022/09/16 06:07:19;;;;;;;;;;;;;;;14.45;100.00;97983.07;104858;1270;62095;-69
2022/09/16 06:09:46;;;;;;;;;;;;;;;14.54;100.00;97972.30;104866;1270;62171;-70
2022/09/16 06:12:12;;;;;;;;;;;;;;;14.73;100.00;97965.89;105002;1271;62287;-69
2022/09/16 06:14:38;;;;;;;;;;;;;;;15.05;100.00;97965.48;104989;1271;62222;-70
2022/09/16 06:17:04;;;;;;;;;;;;;;;15.30;100.00;97967.44;104878;1270;62836;-70
2022/09/16 06:19:30;;;;;;;;;;;;;;;15.39;100.00;97970.27;104947;1270;62164;-69
2022/09/16 06:21:56;;;;;;;;;;;;;;;15.46;100.00;97960.92;103845;1270;1417484;-70
2022/09/16 06:24:22;;;;;;;;;;;;;;;15.51;100.00;97959.35;104943;1270;74670;-68
2022/09/16 06:26:49;;;;;;;;;;;;;;;15.56;100.00;97960.75;104836;1270;62158;-69
2022/09/16 06:29:15;;;;;;;;;;;;;;;15.63;100.00;97962.27;104990;1270;62187;-69
2022/09/16 06:31:42;;;;;;;;;;;;;;;15.75;100.00;97962.63;104934;1270;62260;-69
2022/09/16 06:34:13;;;;;;;;;;;;;;;15.92;100.00;97970.35;104970;1270;62195;-69
2022/09/16 06:36:39;;;;;;;;;;;;;;;16.11;100.00;97973.31;104627;1270;72399;-69
2022/09/16 06:39:05;;;;;;;;;;;;;;;16.28;100.00;97976.25;104853;1270;62171;-69
2022/09/16 06:41:32;;;;;;;;;;;;;;;16.29;100.00;97977.67;104978;1270;62087;-71
2022/09/16 06:43:58;;;;;;;;;;;;;;;16.24;100.00;97979.84;105166;1271;62185;-68
2022/09/16 06:46:26;;;;;;;;;;;;;;;16.25;100.00;97978.77;104857;1271;62149;-69
2022/09/16 06:48:53;;;;;;;;;;;;;;;16.38;100.00;97974.88;105278;1270;73467;-70
2022/09/16 06:51:26;;;;;;;;;;;;;;;16.49;100.00;97973.08;104645;1271;62172;-69
2022/09/16 06:53:55;;;;;;;;;;;;;;;16.50;100.00;97975.30;104983;1270;62158;-69
2022/09/16 06:56:20;;;;;;;;;;;;;;;16.47;100.00;97972.36;104805;1270;77199;-69
2022/09/16 06:58:48;;;;;;;;;;;;;;;16.47;100.00;97971.63;104824;1270;62098;-69
2022/09/16 07:01:23;;;;;;;;;;;;;;;16.51;100.00;97967.97;104832;1270;73200;-69
2022/09/16 07:03:50;;;;;;;;;;;;;;;16.51;100.00;97964.02;104571;1271;62201;-69
2022/09/16 07:06:17;;;;;;;;;;;;;;;16.52;100.00;97962.89;104996;1270;62101;-69
2022/09/16 07:08:44;;;;;;;;;;;;;;;16.51;100.00;97961.32;104862;1271;76198;-69
2022/09/16 07:11:11;;;;;;;;;;;;;;;16.56;100.00;97963.00;104973;1270;61938;-69
2022/09/16 07:13:37;;;;;;;;;;;;;;;16.66;100.00;97959.21;104862;1270;73474;-69
2022/09/16 07:16:05;;;;;;;;;;;;;;;16.85;100.00;97966.30;104837;1270;62085;-69
2022/09/16 07:18:31;;;;;;;;;;;;;;;16.96;100.00;97975.55;104879;1271;62163;-69
2022/09/16 07:21:02;;;;;;;;;;;;;;;16.99;100.00;97977.30;104698;1271;76364;-69
2022/09/16 07:23:30;;;;;;;;;;;;;;;16.96;100.00;97982.52;104963;1270;70449;-70
2022/09/16 07:26:05;;;;;;;;;;;;;;;16.82;100.00;97988.19;104953;1270;72500;-69
2022/09/16 07:28:31;;;;;;;;;;;;;;;16.74;100.00;97992.29;104868;1270;62168;-69
2022/09/16 07:31:00;;;;;;;;;;;;;;;16.75;100.00;97991.91;105027;1270;62259;-70
2022/09/16 07:33:25;;;;;;;;;;;;;;;16.78;100.00;97988.23;104973;1270;77263;-70
2022/09/16 07:35:52;;;;;;;;;;;;;;;16.85;100.00;97989.47;104622;1272;62141;-70
2022/09/16 07:38:18;;;;;;;;;;;;;;;16.82;100.00;97990.55;104827;1270;62098;-69
2022/09/16 07:40:44;;;;;;;;;;;;;;;16.80;100.00;97992.00;104859;1270;62095;-69
2022/09/16 07:43:09;;;;;;;;;;;;;;;16.78;100.00;97997.17;104844;1270;62169;-69
2022/09/16 07:45:36;;;;;;;;;;;;;;;16.83;100.00;98002.02;104833;1270;62096;-69
2022/09/16 07:48:02;;;;;;;;;;;;;;;16.97;100.00;98002.20;104837;1271;62158;-69
2022/09/16 07:50:27;;;;;;;;;;;;;;;17.05;100.00;97998.92;104848;1270;62168;-69
2022/09/16 07:52:54;;;;;;;;;;;;;;;17.07;100.00;97997.45;104902;1270;62218;-69
2022/09/16 07:55:21;;;;;;;;;;;;;;;17.08;100.00;98004.31;104845;1270;76074;-69
2022/09/16 07:57:46;;;;;;;;;;;;;;;17.17;100.00;98005.36;104856;1270;62190;-69
2022/09/16 08:00:15;;;;;;;;;;;;;;;17.29;100.00;98008.09;104831;1270;62161;-69
2022/09/16 08:02:41;;;;;;;;;;;;;;;17.38;100.00;98009.65;104834;1271;62083;-69
2022/09/16 08:05:08;;;;;;;;;;;;;;;17.40;100.00;98008.19;104835;1270;62264;-69
2022/09/16 08:07:36;;;;;;;;;;;;;;;17.39;100.00;98008.46;104671;1271;74547;-69
2022/09/16 08:10:03;;;;;;;;;;;;;;;17.30;100.00;98009.23;105048;1270;62032;-70
2022/09/16 08:12:32;;;;;;;;;;;;;;;17.16;100.00;98012.12;104945;1270;73097;-69
2022/09/16 08:14:58;;;;;;;;;;;;;;;17.03;100.00;98006.80;104837;1270;62085;-69
2022/09/16 08:17:25;;;;;;;;;;;;;;;16.95;100.00;98003.84;104849;1270;62223;-69
2022/09/16 08:19:51;;;;;;;;;;;;;;;16.98;100.00;98006.71;104858;1270;62056;-69
2022/09/16 08:22:17;;;;;;;;;;;;;;;17.13;100.00;98010.44;104855;1270;62120;-69
2022/09/16 08:24:43;;;;;;;;;;;;;;;17.19;100.00;98010.36;104887;1270;62082;-70
2022/09/16 08:27:09;;;;;;;;;;;;;;;17.25;100.00;98007.17;104836;1270;62220;-70
2022/09/16 08:29:35;;;;;;;;;;;;;;;17.35;100.00;98006.34;104985;1270;62184;-69
2022/09/16 08:32:01;;;;;;;;;;;;;;;17.55;100.00;98009.33;104825;1270;62091;-69
2022/09/16 08:34:28;;;;;;;;;;;;;;;17.58;100.00;98008.91;104878;1270;62181;-71
2022/09/16 08:36:54;;;;;;;;;;;;;;;17.42;100.00;98011.39;104877;1270;62605;-70
2022/09/16 08:39:21;;;;;;;;;;;;;;;17.28;100.00;98010.06;104908;1270;62180;-70
2022/09/16 08:41:58;;;;;;;;;;;;;;;17.13;100.00;98003.61;104611;1272;62091;-70
2022/09/16 08:44:35;;;;;;;;;;;;;;;17.05;100.00;98004.98;104993;1270;76194;-69
2022/09/16 08:47:02;;;;;;;;;;;;;;;16.98;100.00;98011.48;104847;1270;69429;-70
2022/09/16 08:49:39;;;;;;;;;;;;;;;17.03;100.00;98018.47;104644;1271;73456;-69
2022/09/16 08:52:14;;;;;;;;;;;;;;;17.26;100.00;98014.40;104908;1270;62174;-70
2022/09/16 08:54:48;;;;;;;;;;;;;;;17.53;100.00;98012.86;105045;1270;62111;-70
2022/09/16 08:57:19;;;;;;;;;;;;;;;17.79;100.00;98010.87;104860;1270;76116;-69
2022/09/16 08:59:51;;;;;;;;;;;;;;;18.09;100.00;98004.45;104880;1270;68377;-70
2022/09/16 09:02:18;;;;;;;;;;;;;;;18.38;100.00;97998.91;104942;1270;73431;-70
2022/09/16 09:04:44;;;;;;;;;;;;;;;18.44;100.00;97997.17;104912;1270;72311;-70
2022/09/16 09:07:23;;;;;;;;;;;;;;;18.35;100.00;97996.88;104744;1270;63681;-69
2022/09/16 09:10:10;;;;;;;;;;;;;;;18.23;100.00;97995.21;105168;1270;77239;-71
2022/09/16 09:12:44;;;;;;;;;;;;;;;18.25;100.00;97990.65;105174;1270;68531;-70
2022/09/16 09:15:33;;;;;;;;;;;;;;;18.37;100.00;97991.98;104911;1271;71820;-70
2022/09/16 09:18:16;;;;;;;;;;;;;;;18.55;100.00;98000.25;105181;1270;62158;-70
2022/09/16 09:21:00;;;;;;;;;;;;;;;18.60;100.00;98001.89;105212;1270;62085;-69
2022/09/16 09:23:27;;;;;;;;;;;;;;;18.57;100.00;98003.23;105011;1271;75615;-70
2022/09/16 09:26:17;;;;;;;;;;;;;;;18.45;100.00;98002.13;104905;1270;62100;-69
2022/09/16 09:28:52;;;;;;;;;;;;;;;18.27;100.00;98004.48;104881;1270;74491;-69
2022/09/16 09:31:22;;;;;;;;;;;;;;;18.23;100.00;98009.98;104627;1271;62102;-69
2022/09/16 09:33:50;;;;;;;;;;;;;;;18.27;100.00;98005.99;104891;1270;62069;-69
2022/09/16 09:36:16;;;;;;;;;;;;;;;18.58;100.00;97999.14;104901;1270;77250;-70
2022/09/16 09:38:43;;;;;;;;;;;;;;;18.92;100.00;97997.70;104882;1270;62164;-68
2022/09/16 09:41:12;;;;;;;;;;;;;;;19.13;100.00;97999.63;104939;1270;62099;-69
2022/09/16 09:43:47;;;;;;;;;;;;;;;19.10;100.00;97999.61;104881;1270;62115;-69
2022/09/16 09:46:32;;;;;;;;;;;;;;;18.82;100.00;98003.20;105067;1270;62060;-68
2022/09/16 09:49:25;;;;;;;;;;;;;;;18.67;100.00;98002.23;104868;1270;77550;-69
2022/09/16 09:51:54;;;;;;;;;;;;;;;18.69;100.00;98003.59;104991;1270;70360;-81
2022/09/16 09:54:26;;;;;;;;;;;;;;;18.66;100.00;98013.46;105222;1270;74658;-71
2022/09/16 09:56:54;;;;;;;;;;;;;;;18.62;100.00;98009.40;105217;1270;62209;-71
2022/09/16 09:59:32;;;;;;;;;;;;;;;18.61;100.00;98013.87;104951;1270;62037;-71
2022/09/16 10:02:00;;;;;;;;;;;;;;;18.58;100.00;98012.40;104846;1270;76312;-70
2022/09/16 10:04:28;;;;;;;;;;;;;;;18.62;100.00;98004.45;105065;1270;69370;-70
2022/09/16 10:06:55;;;;;;;;;;;;;;;18.77;100.00;97996.04;105232;1270;73492;-71
2022/09/16 10:09:22;;;;;;;;;;;;;;;18.92;100.00;97998.32;105052;1270;62089;-70
2022/09/16 10:11:53;;;;;;;;;;;;;;;18.94;100.00;97994.27;104951;1270;62092;-71
2022/09/16 10:14:25;;;;;;;;;;;;;;;18.96;100.00;97985.92;104850;1270;75171;-69
2022/09/16 10:16:52;;;;;;;;;;;;;;;19.02;100.00;97996.00;104899;1270;70316;-71
2022/09/16 10:19:21;;;;;;;;;;;;;;;19.05;100.00;97988.98;104872;1270;73571;-71
2022/09/16 10:21:50;;;;;;;;;;;;;;;19.07;100.00;97988.73;104872;1270;62009;-71
2022/09/16 10:24:26;;;;;;;;;;;;;;;19.15;100.00;97988.23;105029;1270;61995;-72
2022/09/16 10:26:52;;;;;;;;;;;;;;;19.20;100.00;97987.71;104992;1270;76404;-72
2022/09/16 10:29:18;;;;;;;;;;;;;;;19.39;100.00;97981.86;105171;1270;62174;-70
2022/09/16 10:31:44;;;;;;;;;;;;;;;19.53;100.00;97974.30;104898;1270;62120;-70
2022/09/16 10:34:17;;;;;;;;;;;;;;;19.73;100.00;97968.56;104673;1270;62191;-71
2022/09/16 10:36:43;;;;;;;;;;;;;;;20.05;100.00;97964.21;104617;1270;62211;-70
2022/09/16 10:39:21;;;;;;;;;;;;;;;20.38;100.00;97958.49;105144;1270;62207;-70
2022/09/16 10:41:46;;;;;;;;;;;;;;;20.84;100.00;97961.84;104886;1270;69546;-71
2022/09/16 10:44:14;;;;;;;;;;;;;;;21.17;100.00;97959.23;105222;1270;62107;-70
2022/09/16 10:46:50;;;;;;;;;;;;;;;21.23;100.00;97958.98;105307;1270;62119;-72
2022/09/16 10:49:25;;;;;;;;;;;;;;;21.31;100.00;97962.38;104879;1270;62060;-71
2022/09/16 10:51:51;;;;;;;;;;;;;;;21.40;100.00;97960.52;104876;1270;76348;-71
2022/09/16 10:54:26;;;;;;;;;;;;;;;21.36;100.00;97955.02;104935;1270;62174;-70
2022/09/16 10:56:53;;;;;;;;;;;;;;;21.10;100.00;97957.54;104929;1270;73365;-71
2022/09/16 10:59:19;;;;;;;;;;;;;;;20.66;100.00;97954.83;104870;1270;62123;-70
2022/09/16 11:01:45;;;;;;;;;;;;;;;20.23;100.00;97954.49;104896;1270;61963;-72
2022/09/16 11:04:31;;;;;;;;;;;;;;;19.86;100.00;97956.72;104909;1270;62184;-70
2022/09/16 11:07:10;;;;;;;;;;;;;;;19.43;100.00;97971.91;104298;1277;69542;-71
2022/09/16 11:09:53;;;;;;;;;;;;;;;19.02;100.00;97966.27;104500;1277;73470;-70
2022/09/16 11:12:22;;;;;;;;;;;;;;;18.58;100.00;97967.51;104292;1277;62113;-71
2022/09/16 11:14:51;;;;;;;;;;;;;;;18.22;100.00;97965.31;104310;1277;62049;-70
2022/09/16 11:17:17;;;;;;;;;;;;;;;17.93;100.00;97967.04;104538;1277;76142;-74
2022/09/16 11:20:03;;;;;;;;;;;;;;;17.68;100.00;97975.61;104602;1277;62277;-73
2022/09/16 11:22:39;;;;;;;;;;;;;;;17.45;100.00;97983.24;104388;1277;73541;-72
2022/09/16 11:25:10;;;;;;;;;;;;;;;17.21;100.00;97991.46;104508;1277;62239;-73
2022/09/16 11:27:44;;;;;;;;;;;;;;;16.74;100.00;97984.19;104321;1277;62057;-72
2022/09/16 11:30:13;;;;;;;;;;;;;;;16.33;100.00;97983.85;104396;1277;76291;-70
2022/09/16 11:32:59;;;;;;;;;;;;;;;15.96;100.00;97981.35;104713;1277;71144;-70
2022/09/16 11:35:43;;;;;;;;;;;;;;;15.70;100.00;97982.86;104509;1277;73338;-72
2022/09/16 11:38:19;;;;;;;;;;;;;;;15.53;100.00;97989.02;104395;1277;62299;-69
2022/09/16 11:40:45;;;;;;;;;;;;;;;15.31;100.00;97983.21;104351;1277;62170;-71
2022/09/16 11:43:26;;;;;;;;;;;;;;;15.06;100.00;97985.65;104485;1277;76162;-68
2022/09/16 11:45:59;;;;;;;;;;;;;;;14.92;100.00;97985.27;105012;1270;70381;-71
2022/09/16 11:48:45;;;;;;;;;;;;;;;14.87;100.00;97986.34;104886;1270;73478;-71
2022/09/16 11:51:11;;;;;;;;;;;;;;;14.83;100.00;97988.52;104885;1270;62210;-70
2022/09/16 11:53:44;;;;;;;;;;;;;;;14.84;100.00;97985.34;104881;1270;62147;-70
2022/09/16 11:56:13;;;;;;;;;;;;;;;14.89;100.00;97982.20;104909;1270;76218;-70
2022/09/16 11:58:56;;;;;;;;;;;;;;;14.96;100.00;97972.19;104633;1270;69091;-72
2022/09/16 12:01:43;;;;;;;;;;;;;;;15.13;100.00;97976.85;105050;1270;74662;-71
2022/09/16 12:04:09;;;;;;;;;;;;;;;15.35;100.00;97966.60;104889;1270;62017;-69
2022/09/16 12:06:55;;;;;;;;;;;;;;;15.48;100.00;97965.88;104918;1270;62043;-79
2022/09/16 12:09:25;;;;;;;;;;;;;;;15.56;100.00;97962.63;104645;1277;74563;-75
2022/09/16 12:11:54;;;;;;;;;;;;;;;15.66;100.00;97956.02;104626;1277;70245;-75
2022/09/16 12:14:27;;;;;;;;;;;;;;;15.73;100.00;97959.84;104637;1277;73073;-74
2022/09/16 12:17:05;;;;;;;;;;;;;;;15.92;100.00;97957.63;104692;1277;62195;-74
2022/09/16 12:19:34;;;;;;;;;;;;;;;16.15;100.00;97953.41;104610;1277;62154;-77
2022/09/16 12:22:05;;;;;;;;;;;;;;;16.26;100.00;97947.39;104624;1277;76770;-76
2022/09/16 12:24:50;;;;;;;;;;;;;;;16.41;100.00;97948.80;104696;1277;69212;-74
2022/09/16 12:27:18;;;;;;;;;;;;;;;16.56;100.00;97949.33;104661;1277;73534;-77
2022/09/16 12:29:55;;;;;;;;;;;;;;;16.60;100.00;97949.55;104597;1277;62093;-77
2022/09/16 12:32:36;;;;;;;;;;;;;;;16.63;100.00;97944.66;104677;1277;62051;-76
2022/09/16 12:35:11;;;;;;;;;;;;;;;16.73;100.00;97940.83;104526;1278;76225;-77
2022/09/16 12:37:48;;;;;;;;;;;;;;;16.80;100.00;97939.35;104727;1278;71021;-76
2022/09/16 12:40:25;;;;;;;;;;;;;;;16.91;100.00;97935.67;104584;1277;73390;-75